WON1341 WAGI-WIOO
Flight info
| Callsign | WON1341 |
|---|---|
| Flight time | 0h 56m |
| Altitude | 24000 |
| Route | SUGIK |
| Aircraft | DH8D/M-SDE2E3FGRY/H |
Departure
| Time | 2026-05-05 09:46 |
|---|---|
| Airport | Iskandar Airport (WAGI) |
Arrival
| Time | 2026-05-05 10:43 |
|---|---|
| Airport | Supadio International Airport (WIOO) |
| Time | Latitude | Longitude | Altitude | Speed | Heading |
|---|---|---|---|---|---|
| 2026-05-05 09:35 | -2.70376 | 111.66959 | 83 ft | 0 kts | 309° |
| 2026-05-05 09:39 | -2.70358 | 111.66939 | 83 ft | 5 kts | 315° |
| 2026-05-05 09:40 | -2.70330 | 111.66939 | 83 ft | 4 kts | 36° |
| 2026-05-05 09:40 | -2.70308 | 111.66961 | 83 ft | 3 kts | 46° |
| 2026-05-05 09:40 | -2.70291 | 111.66978 | 83 ft | 2 kts | 41° |
| 2026-05-05 09:40 | -2.70268 | 111.66997 | 83 ft | 8 kts | 42° |
| 2026-05-05 09:41 | -2.70266 | 111.67049 | 83 ft | 8 kts | 132° |
| 2026-05-05 09:41 | -2.70313 | 111.67100 | 83 ft | 11 kts | 134° |
| 2026-05-05 09:41 | -2.70382 | 111.67172 | 83 ft | 16 kts | 132° |
| 2026-05-05 09:41 | -2.70473 | 111.67271 | 83 ft | 21 kts | 132° |
| 2026-05-05 09:42 | -2.70583 | 111.67394 | 83 ft | 24 kts | 132° |
| 2026-05-05 09:42 | -2.70689 | 111.67508 | 83 ft | 19 kts | 133° |
| 2026-05-05 09:42 | -2.70771 | 111.67597 | 83 ft | 14 kts | 131° |
| 2026-05-05 09:42 | -2.70831 | 111.67664 | 83 ft | 11 kts | 131° |
| 2026-05-05 09:43 | -2.70878 | 111.67712 | 83 ft | 8 kts | 135° |
| 2026-05-05 09:43 | -2.70918 | 111.67755 | 83 ft | 11 kts | 132° |
| 2026-05-05 09:43 | -2.70989 | 111.67833 | 83 ft | 18 kts | 132° |
| 2026-05-05 09:43 | -2.71083 | 111.67934 | 83 ft | 18 kts | 132° |
| 2026-05-05 09:44 | -2.71127 | 111.68000 | 83 ft | 8 kts | 106° |
| 2026-05-05 09:44 | -2.71144 | 111.68039 | 83 ft | 4 kts | 136° |
| 2026-05-05 09:44 | -2.71165 | 111.68036 | 83 ft | 3 kts | 226° |
| 2026-05-05 09:44 | -2.71148 | 111.68005 | 83 ft | 5 kts | 320° |
| 2026-05-05 09:45 | -2.71140 | 111.67996 | 83 ft | 0 kts | 312° |
| 2026-05-05 09:45 | -2.71136 | 111.67992 | 83 ft | 1 kts | 312° |
| 2026-05-05 09:45 | -2.71108 | 111.67962 | 83 ft | 18 kts | 313° |
| 2026-05-05 09:45 | -2.70886 | 111.67720 | 83 ft | 90 kts | 313° |
| 2026-05-05 09:46 | -2.70290 | 111.67074 | 86 ft | 154 kts | 315° |
| 2026-05-05 09:46 | -2.69546 | 111.66300 | 562 ft | 154 kts | 313° |
| 2026-05-05 09:46 | -2.68782 | 111.65560 | 1129 ft | 155 kts | 313° |
| 2026-05-05 09:46 | -2.68065 | 111.64764 | 1689 ft | 159 kts | 313° |
| 2026-05-05 09:47 | -2.67253 | 111.63906 | 2046 ft | 176 kts | 313° |
| 2026-05-05 09:47 | -2.66414 | 111.63011 | 2604 ft | 178 kts | 313° |
| 2026-05-05 09:47 | -2.65570 | 111.62101 | 3136 ft | 181 kts | 313° |
| 2026-05-05 09:47 | -2.64711 | 111.61172 | 3685 ft | 182 kts | 313° |
| 2026-05-05 09:48 | -2.63848 | 111.60234 | 4235 ft | 184 kts | 313° |
| 2026-05-05 09:48 | -2.62998 | 111.59309 | 4783 ft | 183 kts | 313° |
| 2026-05-05 09:48 | -2.62131 | 111.58365 | 5281 ft | 187 kts | 313° |
| 2026-05-05 09:48 | -2.61252 | 111.57407 | 5810 ft | 186 kts | 313° |
| 2026-05-05 09:49 | -2.60382 | 111.56457 | 6343 ft | 186 kts | 313° |
| 2026-05-05 09:49 | -2.59513 | 111.55507 | 6839 ft | 186 kts | 314° |
| 2026-05-05 09:49 | -2.58631 | 111.54544 | 7315 ft | 187 kts | 314° |
| 2026-05-05 09:49 | -2.57759 | 111.53591 | 7770 ft | 189 kts | 314° |
| 2026-05-05 09:50 | -2.56871 | 111.52620 | 8225 ft | 189 kts | 313° |
| 2026-05-05 09:50 | -2.55977 | 111.51643 | 8653 ft | 191 kts | 313° |
| 2026-05-05 09:50 | -2.55089 | 111.50672 | 9078 ft | 192 kts | 313° |
| 2026-05-05 09:50 | -2.54185 | 111.49685 | 9485 ft | 193 kts | 313° |
| 2026-05-05 09:51 | -2.53275 | 111.48691 | 9862 ft | 195 kts | 313° |
| 2026-05-05 09:51 | -2.52344 | 111.47673 | 10251 ft | 197 kts | 313° |
| 2026-05-05 09:51 | -2.51417 | 111.46660 | 10618 ft | 199 kts | 313° |
| 2026-05-05 09:51 | -2.50491 | 111.45647 | 10988 ft | 200 kts | 314° |
| 2026-05-05 09:52 | -2.49544 | 111.44614 | 11351 ft | 201 kts | 314° |
| 2026-05-05 09:52 | -2.48606 | 111.43589 | 11697 ft | 202 kts | 314° |
| 2026-05-05 09:52 | -2.47647 | 111.42541 | 12047 ft | 203 kts | 314° |
| 2026-05-05 09:52 | -2.46685 | 111.41490 | 12383 ft | 204 kts | 314° |
| 2026-05-05 09:53 | -2.45726 | 111.40443 | 12709 ft | 206 kts | 314° |
| 2026-05-05 09:53 | -2.44765 | 111.39393 | 13033 ft | 206 kts | 314° |
| 2026-05-05 09:53 | -2.43788 | 111.38326 | 13343 ft | 207 kts | 314° |
| 2026-05-05 09:53 | -2.42816 | 111.37265 | 13621 ft | 210 kts | 314° |
| 2026-05-05 09:54 | -2.41819 | 111.36176 | 13901 ft | 212 kts | 314° |
| 2026-05-05 09:54 | -2.40817 | 111.35081 | 14188 ft | 213 kts | 314° |
| 2026-05-05 09:54 | -2.39811 | 111.33984 | 14445 ft | 215 kts | 314° |
| 2026-05-05 09:54 | -2.38802 | 111.32883 | 14714 ft | 216 kts | 314° |
| 2026-05-05 09:55 | -2.37782 | 111.31769 | 14972 ft | 217 kts | 314° |
| 2026-05-05 09:55 | -2.36764 | 111.30656 | 15232 ft | 218 kts | 314° |
| 2026-05-05 09:55 | -2.35720 | 111.29517 | 15474 ft | 220 kts | 314° |
| 2026-05-05 09:55 | -2.34620 | 111.28469 | 15714 ft | 219 kts | 326° |
| 2026-05-05 09:56 | -2.33345 | 111.27616 | 15938 ft | 220 kts | 330° |
| 2026-05-05 09:56 | -2.32048 | 111.26790 | 16167 ft | 221 kts | 330° |
| 2026-05-05 09:56 | -2.30749 | 111.25958 | 16409 ft | 221 kts | 330° |
| 2026-05-05 09:56 | -2.29441 | 111.25119 | 16639 ft | 223 kts | 329° |
| 2026-05-05 09:57 | -2.28130 | 111.24276 | 16917 ft | 224 kts | 329° |
| 2026-05-05 09:57 | -2.26823 | 111.23435 | 17176 ft | 225 kts | 330° |
| 2026-05-05 09:57 | -2.25499 | 111.22581 | 17437 ft | 226 kts | 330° |
| 2026-05-05 09:57 | -2.24183 | 111.21732 | 17673 ft | 228 kts | 330° |
| 2026-05-05 09:58 | -2.22841 | 111.20864 | 17932 ft | 228 kts | 329° |
| 2026-05-05 09:58 | -2.21514 | 111.20007 | 18159 ft | 230 kts | 329° |
| 2026-05-05 09:58 | -2.20152 | 111.19125 | 18388 ft | 231 kts | 330° |
| 2026-05-05 09:58 | -2.18798 | 111.18249 | 18613 ft | 232 kts | 329° |
| 2026-05-05 09:59 | -2.17441 | 111.17371 | 18834 ft | 233 kts | 330° |
| 2026-05-05 09:59 | -2.16065 | 111.16480 | 19048 ft | 234 kts | 330° |
| 2026-05-05 09:59 | -2.14704 | 111.15599 | 19262 ft | 235 kts | 330° |
| 2026-05-05 09:59 | -2.13329 | 111.14709 | 19462 ft | 236 kts | 330° |
| 2026-05-05 10:00 | -2.11941 | 111.13810 | 19665 ft | 237 kts | 330° |
| 2026-05-05 10:00 | -2.10549 | 111.12909 | 19876 ft | 238 kts | 330° |
| 2026-05-05 10:00 | -2.09175 | 111.12019 | 20198 ft | 231 kts | 330° |
| 2026-05-05 10:00 | -2.07840 | 111.11153 | 20522 ft | 225 kts | 330° |
| 2026-05-05 10:01 | -2.06519 | 111.10300 | 20688 ft | 226 kts | 330° |
| 2026-05-05 10:01 | -2.05198 | 111.09457 | 20879 ft | 225 kts | 332° |
| 2026-05-05 10:01 | -2.03826 | 111.08682 | 21023 ft | 226 kts | 335° |
| 2026-05-05 10:01 | -2.02445 | 111.07935 | 21171 ft | 226 kts | 335° |
| 2026-05-05 10:02 | -2.01062 | 111.07183 | 21330 ft | 227 kts | 335° |
| 2026-05-05 10:02 | -1.99674 | 111.06426 | 21462 ft | 228 kts | 335° |
| 2026-05-05 10:02 | -1.98265 | 111.05653 | 21619 ft | 228 kts | 335° |
| 2026-05-05 10:02 | -1.96867 | 111.04886 | 21764 ft | 229 kts | 335° |
| 2026-05-05 10:03 | -1.95473 | 111.04120 | 21891 ft | 230 kts | 334° |
| 2026-05-05 10:03 | -1.94067 | 111.03345 | 22034 ft | 230 kts | 335° |
| 2026-05-05 10:03 | -1.92656 | 111.02567 | 22174 ft | 230 kts | 335° |
| 2026-05-05 10:03 | -1.91250 | 111.01791 | 22307 ft | 231 kts | 334° |
| 2026-05-05 10:04 | -1.89828 | 111.01007 | 22431 ft | 232 kts | 334° |
| 2026-05-05 10:04 | -1.88426 | 111.00233 | 22562 ft | 232 kts | 334° |
| 2026-05-05 10:04 | -1.87000 | 110.99445 | 22684 ft | 232 kts | 334° |
| 2026-05-05 10:04 | -1.85581 | 110.98662 | 22796 ft | 233 kts | 334° |
| 2026-05-05 10:05 | -1.84138 | 110.97865 | 22914 ft | 234 kts | 335° |
| 2026-05-05 10:05 | -1.82712 | 110.97077 | 23031 ft | 234 kts | 335° |
| 2026-05-05 10:05 | -1.81277 | 110.96285 | 23143 ft | 234 kts | 334° |
| 2026-05-05 10:05 | -1.79839 | 110.95489 | 23266 ft | 234 kts | 335° |
| 2026-05-05 10:06 | -1.78414 | 110.94702 | 23376 ft | 234 kts | 334° |
| 2026-05-05 10:06 | -1.76975 | 110.93907 | 23485 ft | 235 kts | 334° |
| 2026-05-05 10:06 | -1.75549 | 110.93120 | 23591 ft | 235 kts | 334° |
| 2026-05-05 10:06 | -1.74119 | 110.92329 | 23687 ft | 236 kts | 334° |
| 2026-05-05 10:07 | -1.72662 | 110.91524 | 23776 ft | 237 kts | 334° |
| 2026-05-05 10:07 | -1.71213 | 110.90725 | 23814 ft | 241 kts | 334° |
| 2026-05-05 10:07 | -1.69735 | 110.89909 | 23831 ft | 245 kts | 334° |
| 2026-05-05 10:07 | -1.68205 | 110.89063 | 23839 ft | 251 kts | 334° |
| 2026-05-05 10:08 | -1.66653 | 110.88205 | 23843 ft | 257 kts | 334° |
| 2026-05-05 10:08 | -1.65072 | 110.87331 | 23843 ft | 264 kts | 334° |
| 2026-05-05 10:08 | -1.63438 | 110.86427 | 23844 ft | 270 kts | 334° |
| 2026-05-05 10:08 | -1.61756 | 110.85497 | 23847 ft | 277 kts | 334° |
| 2026-05-05 10:09 | -1.60059 | 110.84559 | 23847 ft | 284 kts | 334° |
| 2026-05-05 10:09 | -1.58298 | 110.83585 | 23845 ft | 291 kts | 334° |
| 2026-05-05 10:09 | -1.56507 | 110.82594 | 23846 ft | 297 kts | 333° |
| 2026-05-05 10:09 | -1.54689 | 110.81588 | 23847 ft | 302 kts | 333° |
| 2026-05-05 10:10 | -1.52820 | 110.80555 | 23851 ft | 307 kts | 333° |
| 2026-05-05 10:10 | -1.50937 | 110.79513 | 23852 ft | 312 kts | 333° |
| 2026-05-05 10:10 | -1.49001 | 110.78442 | 23854 ft | 317 kts | 333° |
| 2026-05-05 10:10 | -1.47059 | 110.77369 | 23854 ft | 322 kts | 333° |
| 2026-05-05 10:11 | -1.45074 | 110.76272 | 23850 ft | 326 kts | 333° |
| 2026-05-05 10:11 | -1.43076 | 110.75168 | 23847 ft | 330 kts | 333° |
| 2026-05-05 10:11 | -1.41048 | 110.74047 | 23841 ft | 334 kts | 333° |
| 2026-05-05 10:11 | -1.39004 | 110.72919 | 23836 ft | 338 kts | 333° |
| 2026-05-05 10:12 | -1.36936 | 110.71776 | 23835 ft | 341 kts | 333° |
| 2026-05-05 10:12 | -1.34851 | 110.70624 | 23833 ft | 342 kts | 333° |
| 2026-05-05 10:12 | -1.32775 | 110.69477 | 23832 ft | 343 kts | 333° |
| 2026-05-05 10:12 | -1.30664 | 110.68310 | 23828 ft | 344 kts | 333° |
| 2026-05-05 10:13 | -1.28569 | 110.67154 | 23826 ft | 345 kts | 333° |
| 2026-05-05 10:13 | -1.26439 | 110.65977 | 23822 ft | 346 kts | 333° |
| 2026-05-05 10:13 | -1.24323 | 110.64809 | 23817 ft | 346 kts | 333° |
| 2026-05-05 10:13 | -1.22207 | 110.63641 | 23816 ft | 347 kts | 333° |
| 2026-05-05 10:14 | -1.20113 | 110.62485 | 23818 ft | 347 kts | 333° |
| 2026-05-05 10:14 | -1.17975 | 110.61304 | 23818 ft | 347 kts | 333° |
| 2026-05-05 10:14 | -1.15873 | 110.60143 | 23818 ft | 348 kts | 333° |
| 2026-05-05 10:14 | -1.13761 | 110.58915 | 23804 ft | 349 kts | 327° |
| 2026-05-05 10:15 | -1.11901 | 110.57363 | 23819 ft | 350 kts | 319° |
| 2026-05-05 10:15 | -1.10091 | 110.55694 | 23814 ft | 351 kts | 319° |
| 2026-05-05 10:15 | -1.08304 | 110.54041 | 23810 ft | 351 kts | 319° |
| 2026-05-05 10:15 | -1.06508 | 110.52384 | 23808 ft | 352 kts | 319° |
| 2026-05-05 10:16 | -1.04696 | 110.50716 | 23808 ft | 352 kts | 319° |
| 2026-05-05 10:16 | -1.02894 | 110.49058 | 23807 ft | 352 kts | 319° |
| 2026-05-05 10:16 | -1.01093 | 110.47405 | 23807 ft | 351 kts | 319° |
| 2026-05-05 10:16 | -0.99285 | 110.45745 | 23811 ft | 350 kts | 319° |
| 2026-05-05 10:17 | -0.97497 | 110.44105 | 23811 ft | 350 kts | 319° |
| 2026-05-05 10:17 | -0.95718 | 110.42474 | 23815 ft | 349 kts | 319° |
| 2026-05-05 10:17 | -0.93916 | 110.40823 | 23812 ft | 348 kts | 319° |
| 2026-05-05 10:17 | -0.92121 | 110.39178 | 23817 ft | 348 kts | 319° |
| 2026-05-05 10:18 | -0.90353 | 110.37560 | 23818 ft | 348 kts | 319° |
| 2026-05-05 10:18 | -0.88555 | 110.35913 | 23820 ft | 348 kts | 319° |
| 2026-05-05 10:18 | -0.86778 | 110.34286 | 23818 ft | 347 kts | 319° |
| 2026-05-05 10:18 | -0.85004 | 110.32661 | 23823 ft | 347 kts | 319° |
| 2026-05-05 10:19 | -0.83206 | 110.31016 | 23822 ft | 347 kts | 319° |
| 2026-05-05 10:19 | -0.81410 | 110.29372 | 23824 ft | 348 kts | 319° |
| 2026-05-05 10:19 | -0.79634 | 110.27747 | 23822 ft | 349 kts | 319° |
| 2026-05-05 10:19 | -0.77836 | 110.26102 | 23815 ft | 349 kts | 319° |
| 2026-05-05 10:20 | -0.76049 | 110.24466 | 23821 ft | 349 kts | 319° |
| 2026-05-05 10:20 | -0.74244 | 110.22814 | 23817 ft | 350 kts | 319° |
| 2026-05-05 10:20 | -0.72539 | 110.21253 | 23814 ft | 350 kts | 319° |
| 2026-05-05 10:23 | -0.71689 | 110.20476 | 23821 ft | 350 kts | 319° |
| 2026-05-05 10:23 | -0.69904 | 110.18842 | 23821 ft | 350 kts | 319° |
| 2026-05-05 10:23 | -0.68112 | 110.17202 | 23824 ft | 347 kts | 319° |
| 2026-05-05 10:23 | -0.66351 | 110.15585 | 23554 ft | 341 kts | 319° |
| 2026-05-05 10:24 | -0.64614 | 110.13991 | 23223 ft | 339 kts | 319° |
| 2026-05-05 10:24 | -0.62888 | 110.12408 | 22866 ft | 338 kts | 319° |
| 2026-05-05 10:24 | -0.61142 | 110.10809 | 22485 ft | 337 kts | 319° |
| 2026-05-05 10:24 | -0.59430 | 110.09240 | 22120 ft | 336 kts | 319° |
| 2026-05-05 10:25 | -0.57701 | 110.07657 | 21737 ft | 336 kts | 319° |
| 2026-05-05 10:25 | -0.55967 | 110.06069 | 21357 ft | 335 kts | 319° |
| 2026-05-05 10:25 | -0.54254 | 110.04501 | 20978 ft | 334 kts | 319° |
| 2026-05-05 10:25 | -0.52537 | 110.02930 | 20597 ft | 333 kts | 319° |
| 2026-05-05 10:26 | -0.50843 | 110.01379 | 20221 ft | 331 kts | 319° |
| 2026-05-05 10:26 | -0.49147 | 109.99827 | 19851 ft | 329 kts | 319° |
| 2026-05-05 10:26 | -0.47460 | 109.98282 | 19478 ft | 328 kts | 319° |
| 2026-05-05 10:26 | -0.45779 | 109.96742 | 19106 ft | 326 kts | 319° |
| 2026-05-05 10:27 | -0.44125 | 109.95229 | 18738 ft | 325 kts | 319° |
| 2026-05-05 10:27 | -0.42462 | 109.93707 | 18369 ft | 323 kts | 319° |
| 2026-05-05 10:27 | -0.40804 | 109.92190 | 18001 ft | 320 kts | 319° |
| 2026-05-05 10:27 | -0.39169 | 109.90693 | 17641 ft | 318 kts | 319° |
| 2026-05-05 10:28 | -0.37527 | 109.89190 | 17283 ft | 316 kts | 319° |
| 2026-05-05 10:28 | -0.35922 | 109.87721 | 16929 ft | 313 kts | 319° |
| 2026-05-05 10:28 | -0.34326 | 109.86259 | 16576 ft | 311 kts | 319° |
| 2026-05-05 10:28 | -0.32719 | 109.84787 | 16222 ft | 310 kts | 319° |
| 2026-05-05 10:29 | -0.31129 | 109.83333 | 15876 ft | 312 kts | 319° |
| 2026-05-05 10:29 | -0.29499 | 109.81847 | 15519 ft | 321 kts | 319° |
| 2026-05-05 10:29 | -0.27850 | 109.80341 | 15152 ft | 326 kts | 319° |
| 2026-05-05 10:29 | -0.26160 | 109.78796 | 14782 ft | 330 kts | 319° |
| 2026-05-05 10:30 | -0.24465 | 109.77247 | 14399 ft | 331 kts | 319° |
| 2026-05-05 10:30 | -0.22772 | 109.75697 | 14026 ft | 330 kts | 318° |
| 2026-05-05 10:30 | -0.21079 | 109.74146 | 13651 ft | 330 kts | 318° |
| 2026-05-05 10:30 | -0.19376 | 109.72588 | 13282 ft | 329 kts | 318° |
| 2026-05-05 10:31 | -0.17702 | 109.71056 | 12914 ft | 329 kts | 318° |
| 2026-05-05 10:31 | -0.16016 | 109.69512 | 12668 ft | 323 kts | 318° |
| 2026-05-05 10:31 | -0.14360 | 109.67996 | 12339 ft | 322 kts | 318° |
| 2026-05-05 10:31 | -0.12718 | 109.66492 | 11991 ft | 321 kts | 318° |
| 2026-05-05 10:32 | -0.11065 | 109.64980 | 11631 ft | 320 kts | 318° |
| 2026-05-05 10:32 | -0.09419 | 109.63474 | 11273 ft | 319 kts | 318° |
| 2026-05-05 10:32 | -0.07782 | 109.61975 | 10911 ft | 318 kts | 318° |
| 2026-05-05 10:32 | -0.06149 | 109.60481 | 10552 ft | 314 kts | 318° |
| 2026-05-05 10:33 | -0.04467 | 109.59137 | 10195 ft | 306 kts | 325° |
| 2026-05-05 10:33 | -0.02767 | 109.57950 | 9853 ft | 294 kts | 326° |
| 2026-05-05 10:33 | -0.01093 | 109.56790 | 9526 ft | 284 kts | 326° |
| 2026-05-05 10:33 | 0.00498 | 109.55690 | 9212 ft | 276 kts | 326° |
| 2026-05-05 10:34 | 0.02064 | 109.54607 | 8907 ft | 270 kts | 326° |
| 2026-05-05 10:34 | 0.03608 | 109.53537 | 8608 ft | 268 kts | 326° |
| 2026-05-05 10:34 | 0.05130 | 109.52484 | 8309 ft | 269 kts | 326° |
| 2026-05-05 10:34 | 0.06679 | 109.51411 | 8003 ft | 267 kts | 326° |
| 2026-05-05 10:35 | 0.08169 | 109.50344 | 7698 ft | 264 kts | 324° |
| 2026-05-05 10:35 | 0.09642 | 109.49246 | 7396 ft | 262 kts | 324° |
| 2026-05-05 10:35 | 0.11000 | 109.48006 | 6893 ft | 268 kts | 305° |
| 2026-05-05 10:35 | 0.11512 | 109.46258 | 6609 ft | 264 kts | 269° |
| 2026-05-05 10:36 | 0.11084 | 109.44508 | 6351 ft | 261 kts | 251° |
| 2026-05-05 10:36 | 0.10428 | 109.42801 | 6049 ft | 259 kts | 249° |
| 2026-05-05 10:36 | 0.09771 | 109.41138 | 5756 ft | 259 kts | 249° |
| 2026-05-05 10:36 | 0.09105 | 109.39476 | 5456 ft | 255 kts | 249° |
| 2026-05-05 10:37 | 0.08454 | 109.37852 | 5161 ft | 251 kts | 249° |
| 2026-05-05 10:37 | 0.07804 | 109.36231 | 4868 ft | 247 kts | 249° |
| 2026-05-05 10:37 | 0.07168 | 109.34657 | 4575 ft | 245 kts | 247° |
| 2026-05-05 10:37 | 0.06194 | 109.33273 | 4016 ft | 245 kts | 216° |
| 2026-05-05 10:38 | 0.04651 | 109.32815 | 3761 ft | 226 kts | 175° |
| 2026-05-05 10:38 | 0.03206 | 109.33183 | 3547 ft | 209 kts | 160° |
| 2026-05-05 10:38 | 0.01860 | 109.33665 | 3313 ft | 198 kts | 159° |
| 2026-05-05 10:38 | 0.00593 | 109.34125 | 2983 ft | 193 kts | 160° |
| 2026-05-05 10:39 | -0.00662 | 109.34572 | 2680 ft | 185 kts | 159° |
| 2026-05-05 10:39 | -0.01801 | 109.35014 | 2465 ft | 166 kts | 158° |
| 2026-05-05 10:39 | -0.02864 | 109.35434 | 2254 ft | 163 kts | 159° |
| 2026-05-05 10:39 | -0.03917 | 109.35850 | 2105 ft | 160 kts | 159° |
| 2026-05-05 10:40 | -0.04928 | 109.36263 | 1854 ft | 152 kts | 159° |
| 2026-05-05 10:40 | -0.05871 | 109.36647 | 1618 ft | 141 kts | 159° |
| 2026-05-05 10:40 | -0.06773 | 109.37009 | 1448 ft | 137 kts | 160° |
| 2026-05-05 10:40 | -0.07664 | 109.37365 | 1333 ft | 141 kts | 159° |
| 2026-05-05 10:41 | -0.08604 | 109.37747 | 1179 ft | 150 kts | 159° |
| 2026-05-05 10:41 | -0.09612 | 109.38158 | 977 ft | 156 kts | 159° |
| 2026-05-05 10:41 | -0.10600 | 109.38565 | 763 ft | 152 kts | 159° |
| 2026-05-05 10:41 | -0.11574 | 109.38961 | 562 ft | 147 kts | 159° |
| 2026-05-05 10:42 | -0.13407 | 109.39714 | 134 ft | 137 kts | 161° |
| 2026-05-05 10:42 | -0.14286 | 109.40070 | 14 ft | 131 kts | 160° |
| 2026-05-05 10:42 | -0.14937 | 109.40333 | 16 ft | 66 kts | 157° |
| 2026-05-05 10:43 | -0.15209 | 109.40444 | 17 ft | 25 kts | 158° |